createdAt,value
2023-03-03T00:00:51.953Z,0.28
2023-03-03T00:01:51.963Z,0.28
2023-03-03T00:02:51.939Z,0.30
2023-03-03T00:03:51.980Z,0.33
2023-03-03T00:04:51.959Z,0.31
2023-03-03T00:05:51.909Z,0.34
2023-03-03T00:06:51.877Z,0.35
2023-03-03T00:07:51.869Z,0.33
2023-03-03T00:08:51.878Z,0.34
2023-03-03T00:09:51.878Z,0.33
2023-03-03T00:10:51.847Z,0.31
2023-03-03T00:11:51.819Z,0.33
2023-03-03T00:12:51.802Z,0.33
2023-03-03T00:13:51.811Z,0.34
2023-03-03T00:14:51.826Z,0.37
2023-03-03T00:15:51.865Z,0.37
2023-03-03T00:16:51.749Z,0.38
2023-03-03T00:17:51.755Z,0.38
2023-03-03T00:18:51.776Z,0.41
2023-03-03T00:19:51.746Z,0.41
2023-03-03T00:20:51.716Z,0.43
2023-03-03T00:21:51.700Z,0.43
2023-03-03T00:22:51.677Z,0.43
2023-03-03T00:23:51.742Z,0.48
2023-03-03T00:24:51.672Z,0.44
2023-03-03T00:25:51.644Z,0.48
2023-03-03T00:26:51.635Z,0.43
2023-03-03T00:27:51.624Z,0.41
2023-03-03T00:28:51.604Z,0.38
2023-03-03T00:29:51.624Z,0.37
2023-03-03T00:30:51.602Z,0.37
2023-03-03T00:31:51.566Z,0.38
2023-03-03T00:32:51.565Z,0.37
2023-03-03T00:33:51.586Z,0.38
2023-03-03T00:34:51.560Z,0.38
2023-03-03T00:35:51.536Z,0.40
2023-03-03T00:36:51.492Z,0.35
2023-03-03T00:37:51.480Z,0.38
2023-03-03T00:38:51.480Z,0.40
2023-03-03T00:39:51.508Z,0.37
2023-03-03T00:40:51.451Z,0.38
2023-03-03T00:41:51.432Z,0.35
2023-03-03T00:42:51.450Z,0.34
2023-03-03T00:43:51.404Z,0.33
2023-03-03T00:44:51.420Z,0.33
2023-03-03T00:45:51.419Z,0.30
2023-03-03T00:46:51.379Z,0.33
2023-03-03T00:47:51.440Z,0.33
2023-03-03T00:48:51.348Z,0.31
2023-03-03T00:49:51.352Z,0.34
2023-03-03T00:50:51.314Z,0.33
2023-03-03T00:51:51.303Z,0.34
2023-03-03T00:52:51.347Z,0.30
2023-03-03T00:53:51.291Z,0.31
2023-03-03T00:54:51.290Z,0.26
2023-03-03T00:55:51.273Z,0.28
2023-03-03T00:56:51.292Z,0.25
2023-03-03T00:57:51.219Z,0.30
2023-03-03T00:58:51.252Z,0.25
2023-03-03T00:59:51.230Z,0.26
2023-03-03T01:00:51.201Z,0.22
2023-03-03T01:01:51.198Z,0.23
2023-03-03T01:02:51.225Z,0.20
2023-03-03T01:03:51.152Z,0.22
2023-03-03T01:04:51.210Z,0.20
2023-03-03T01:05:51.118Z,0.20
2023-03-03T01:06:51.126Z,0.17
2023-03-03T01:07:51.091Z,0.17
2023-03-03T01:08:51.096Z,0.17
2023-03-03T01:09:51.109Z,0.17
2023-03-03T01:10:51.122Z,0.22
2023-03-03T01:11:51.056Z,0.22
2023-03-03T01:12:51.116Z,0.25
2023-03-03T01:13:51.031Z,0.26
2023-03-03T01:14:51.037Z,0.26
2023-03-03T01:15:51.054Z,0.30
2023-03-03T01:16:51.023Z,0.30
2023-03-03T01:17:50.973Z,0.34
2023-03-03T01:18:50.963Z,0.35
2023-03-03T01:19:50.987Z,0.37
2023-03-03T01:20:50.948Z,0.37
2023-03-03T01:21:50.935Z,0.40
2023-03-03T01:22:50.911Z,0.38
2023-03-03T01:23:50.882Z,0.34
2023-03-03T01:24:50.923Z,0.33
2023-03-03T01:25:50.863Z,0.30
2023-03-03T01:26:50.859Z,0.26
2023-03-03T01:27:50.844Z,0.31
2023-03-03T01:28:50.833Z,0.30
2023-03-03T01:29:50.842Z,0.28
2023-03-03T01:30:50.801Z,0.30
2023-03-03T01:31:50.839Z,0.31
2023-03-03T01:32:50.810Z,0.28
2023-03-03T01:33:50.764Z,0.33
2023-03-03T01:34:50.842Z,0.30
2023-03-03T01:35:50.797Z,0.30
2023-03-03T01:36:50.759Z,0.31
2023-03-03T01:37:50.717Z,0.34
2023-03-03T01:38:50.701Z,0.31
2023-03-03T01:39:50.769Z,0.33
2023-03-03T01:40:50.672Z,0.26
2023-03-03T01:41:50.696Z,0.26
2023-03-03T01:42:50.638Z,0.23
2023-03-03T01:43:50.686Z,0.26
2023-03-03T01:44:50.729Z,0.26
2023-03-03T01:45:50.642Z,0.23
2023-03-03T01:46:50.631Z,0.23
2023-03-03T01:47:50.589Z,0.23
2023-03-03T01:48:50.580Z,0.23
2023-03-03T01:49:50.587Z,0.20
2023-03-03T01:50:50.578Z,0.16
2023-03-03T01:51:50.542Z,0.16
2023-03-03T01:52:50.554Z,0.15
2023-03-03T01:53:50.505Z,0.16
2023-03-03T01:54:50.537Z,0.16
2023-03-03T01:55:50.476Z,0.16
2023-03-03T01:56:50.470Z,0.15
2023-03-03T01:57:50.469Z,0.17
2023-03-03T01:58:50.624Z,0.13
2023-03-03T01:59:50.532Z,0.13
2023-03-03T02:00:50.426Z,0.13
2023-03-03T02:01:50.575Z,0.15
2023-03-03T02:02:50.437Z,0.13
2023-03-03T02:03:50.367Z,0.12
2023-03-03T02:04:50.406Z,0.15
2023-03-03T02:05:50.342Z,0.13
2023-03-03T02:06:50.347Z,0.16
2023-03-03T02:07:50.396Z,0.16
2023-03-03T02:08:50.328Z,0.17
2023-03-03T02:09:50.338Z,0.19
2023-03-03T02:10:50.289Z,0.17
2023-03-03T02:11:50.277Z,0.19
2023-03-03T02:12:50.263Z,0.20
2023-03-03T02:13:50.265Z,0.22
2023-03-03T02:14:50.268Z,0.20
2023-03-03T02:15:50.272Z,0.19
2023-03-03T02:16:50.208Z,0.20
2023-03-03T02:17:50.215Z,0.22
2023-03-03T02:18:50.180Z,0.19
2023-03-03T02:19:50.897Z,0.20
2023-03-03T02:20:50.184Z,0.20
2023-03-03T02:21:50.182Z,0.20
2023-03-03T02:22:50.129Z,0.16
2023-03-03T02:23:50.153Z,0.16
2023-03-03T02:24:50.139Z,0.17
2023-03-03T02:25:50.145Z,0.13
2023-03-03T02:26:50.090Z,0.12
2023-03-03T02:27:50.086Z,0.15
2023-03-03T02:28:50.104Z,0.13
2023-03-03T02:29:50.086Z,0.17
2023-03-03T02:30:50.059Z,0.16
2023-03-03T02:31:50.096Z,0.15
2023-03-03T02:32:50.000Z,0.17
2023-03-03T02:33:50.001Z,0.19
2023-03-03T02:34:50.005Z,0.20
2023-03-03T02:35:50.057Z,0.20
2023-03-03T02:36:49.973Z,0.19
2023-03-03T02:37:49.953Z,0.16
2023-03-03T02:38:49.949Z,0.15
2023-03-03T02:39:49.955Z,0.12
2023-03-03T02:40:49.928Z,0.12
2023-03-03T02:41:49.907Z,0.10
2023-03-03T02:42:49.905Z,0.12
2023-03-03T02:43:49.879Z,0.08
2023-03-03T02:44:49.886Z,0.08
2023-03-03T02:45:50.085Z,0.13
2023-03-03T02:46:49.859Z,0.08
2023-03-03T02:47:49.824Z,0.10
2023-03-03T02:48:49.817Z,0.13
2023-03-03T02:49:49.819Z,0.12
2023-03-03T02:50:49.823Z,0.08
2023-03-03T02:51:49.783Z,0.10
2023-03-03T02:52:49.754Z,0.10
2023-03-03T02:53:49.759Z,0.10
2023-03-03T02:54:49.721Z,0.12
2023-03-03T02:55:49.759Z,0.08
2023-03-03T02:56:49.691Z,0.12
2023-03-03T02:57:49.712Z,0.08
2023-03-03T02:58:49.669Z,0.12
2023-03-03T02:59:49.658Z,0.10
2023-03-03T03:00:49.706Z,0.08
2023-03-03T03:01:49.659Z,0.07
2023-03-03T03:02:49.621Z,0.08
2023-03-03T03:03:49.644Z,0.02
2023-03-03T03:04:49.587Z,0.04
2023-03-03T03:05:49.623Z,0.04
2023-03-03T03:06:49.578Z,0.07
2023-03-03T03:07:49.578Z,0.07
2023-03-03T03:08:49.541Z,0.08
2023-03-03T03:09:49.533Z,0.05
2023-03-03T03:10:49.555Z,0.10
2023-03-03T03:11:49.523Z,0.07
2023-03-03T03:12:49.496Z,0.12
2023-03-03T03:13:49.486Z,0.10
2023-03-03T03:14:49.722Z,0.05
2023-03-03T03:15:49.497Z,0.02
2023-03-03T03:16:49.482Z,0.02
2023-03-03T03:17:49.457Z,0.02
2023-03-03T03:18:49.415Z,0.02
2023-03-03T03:19:49.426Z,-0.02
2023-03-03T03:20:49.410Z,0.02
2023-03-03T03:21:49.503Z,0.01
2023-03-03T03:22:49.366Z,-0.01
2023-03-03T03:23:49.365Z,0.02
2023-03-03T03:24:49.344Z,0.04
2023-03-03T03:25:49.357Z,-0.01
2023-03-03T03:26:49.327Z,-0.02
2023-03-03T03:27:49.316Z,-0.03
2023-03-03T03:28:49.309Z,-0.03
2023-03-03T03:29:49.279Z,-0.02
2023-03-03T03:30:49.434Z,-0.06
2023-03-03T03:31:49.253Z,-0.02
2023-03-03T03:32:49.237Z,-0.05
2023-03-03T03:33:49.219Z,-0.05
2023-03-03T03:34:49.225Z,-0.05
2023-03-03T03:35:49.249Z,-0.06
2023-03-03T03:36:49.213Z,-0.01
2023-03-03T03:37:49.186Z,-0.06
2023-03-03T03:38:49.158Z,-0.08
2023-03-03T03:39:49.142Z,-0.13
2023-03-03T03:40:49.179Z,-0.09
2023-03-03T03:41:49.220Z,-0.13
2023-03-03T03:42:49.112Z,-0.16
2023-03-03T03:43:49.119Z,-0.16
2023-03-03T03:44:49.090Z,-0.17
2023-03-03T03:45:49.130Z,-0.16
2023-03-03T03:46:49.055Z,-0.13
2023-03-03T03:47:49.048Z,-0.13
2023-03-03T03:48:49.023Z,-0.16
2023-03-03T03:49:49.050Z,-0.12
2023-03-03T03:50:49.032Z,-0.13
2023-03-03T03:51:49.007Z,-0.14
2023-03-03T03:52:48.973Z,-0.14
2023-03-03T03:53:48.974Z,-0.14
2023-03-03T03:54:48.959Z,-0.16
2023-03-03T03:55:49.060Z,-0.19
2023-03-03T03:56:48.932Z,-0.17
2023-03-03T03:57:48.933Z,-0.19
2023-03-03T03:58:48.904Z,-0.20
2023-03-03T03:59:48.904Z,-0.19
2023-03-03T04:00:48.915Z,-0.20
2023-03-03T04:01:48.895Z,-0.17
2023-03-03T04:02:49.003Z,-0.20
2023-03-03T04:03:48.844Z,-0.19
2023-03-03T04:04:48.844Z,-0.19
2023-03-03T04:05:48.846Z,-0.20
2023-03-03T04:06:48.820Z,-0.21
2023-03-03T04:07:48.792Z,-0.17
2023-03-03T04:08:48.790Z,-0.24
2023-03-03T04:09:48.771Z,-0.21
2023-03-03T04:10:48.796Z,-0.21
2023-03-03T04:11:48.756Z,-0.21
2023-03-03T04:12:48.806Z,-0.20
2023-03-03T04:13:48.720Z,-0.20
2023-03-03T04:14:48.712Z,-0.23
2023-03-03T04:15:48.859Z,-0.24
2023-03-03T04:16:48.685Z,-0.23
2023-03-03T04:17:48.669Z,-0.20
2023-03-03T04:18:48.676Z,-0.21
2023-03-03T04:19:48.668Z,-0.17
2023-03-03T04:20:48.656Z,-0.19
2023-03-03T04:21:48.642Z,-0.19
2023-03-03T04:22:48.683Z,-0.21
2023-03-03T04:23:48.598Z,-0.23
2023-03-03T04:24:48.617Z,-0.26
2023-03-03T04:25:48.595Z,-0.31
2023-03-03T04:26:48.577Z,-0.27
2023-03-03T04:27:48.539Z,-0.31
2023-03-03T04:28:48.533Z,-0.34
2023-03-03T04:29:48.532Z,-0.34
2023-03-03T04:30:48.563Z,-0.31
2023-03-03T04:31:48.509Z,-0.27
2023-03-03T04:32:48.484Z,-0.30
2023-03-03T04:33:48.468Z,-0.30
2023-03-03T04:34:53.145Z,-0.32
2023-03-03T04:35:49.524Z,-0.35
2023-03-03T04:36:48.431Z,-0.37
2023-03-03T04:37:48.432Z,-0.37
2023-03-03T04:38:48.399Z,-0.35
2023-03-03T04:39:48.400Z,-0.38
2023-03-03T04:40:48.430Z,-0.31
2023-03-03T04:41:48.433Z,-0.31
2023-03-03T04:42:48.343Z,-0.34
2023-03-03T04:43:48.342Z,-0.32
2023-03-03T04:44:48.328Z,-0.35
2023-03-03T04:45:48.708Z,-0.34
2023-03-03T04:46:48.290Z,-0.34
2023-03-03T04:47:48.292Z,-0.30
2023-03-03T04:48:48.281Z,-0.31
2023-03-03T04:49:48.264Z,-0.31
2023-03-03T04:50:48.289Z,-0.30
2023-03-03T04:51:48.261Z,-0.31
2023-03-03T04:52:48.228Z,-0.30
2023-03-03T04:53:48.220Z,-0.26
2023-03-03T04:54:48.208Z,-0.30
2023-03-03T04:55:48.231Z,-0.24
2023-03-03T04:56:48.169Z,-0.23
2023-03-03T04:57:48.162Z,-0.23
2023-03-03T04:58:48.144Z,-0.24
2023-03-03T04:59:48.172Z,-0.26
2023-03-03T05:00:48.147Z,-0.23
2023-03-03T05:01:48.136Z,-0.23
2023-03-03T05:02:48.100Z,-0.24
2023-03-03T05:03:48.084Z,-0.23
2023-03-03T05:04:48.187Z,-0.24
2023-03-03T05:05:48.122Z,-0.23
2023-03-03T05:06:48.063Z,-0.24
2023-03-03T05:07:48.050Z,-0.21
2023-03-03T05:08:48.098Z,-0.20
2023-03-03T05:09:48.347Z,-0.21
2023-03-03T05:10:48.018Z,-0.19
2023-03-03T05:11:47.981Z,-0.19
2023-03-03T05:12:47.977Z,-0.16
2023-03-03T05:13:48.892Z,-0.17
2023-03-03T05:14:47.925Z,-0.14
2023-03-03T05:15:48.005Z,-0.13
2023-03-03T05:16:47.945Z,-0.13
2023-03-03T05:17:47.882Z,-0.08
2023-03-03T05:18:47.884Z,-0.12
2023-03-03T05:19:47.854Z,-0.06
2023-03-03T05:20:47.852Z,-0.12
2023-03-03T05:21:47.881Z,-0.13
2023-03-03T05:22:47.848Z,-0.16
2023-03-03T05:23:47.813Z,-0.17
2023-03-03T05:24:47.803Z,-0.16
2023-03-03T05:25:47.810Z,-0.14
2023-03-03T05:26:48.770Z,-0.16
2023-03-03T05:27:47.756Z,-0.14
2023-03-03T05:28:47.775Z,-0.13
2023-03-03T05:29:47.729Z,-0.12
2023-03-03T05:30:47.779Z,-0.09
2023-03-03T05:31:47.783Z,-0.09
2023-03-03T05:32:47.730Z,-0.09
2023-03-03T05:33:47.692Z,-0.12
2023-03-03T05:34:47.669Z,-0.12
2023-03-03T05:35:47.753Z,-0.14
2023-03-03T05:36:47.645Z,-0.13
2023-03-03T05:37:47.614Z,-0.13
2023-03-03T05:38:47.618Z,-0.16
2023-03-03T05:39:47.605Z,-0.13
2023-03-03T05:40:47.977Z,-0.14
2023-03-03T05:41:47.574Z,-0.17
2023-03-03T05:42:47.624Z,-0.19
2023-03-03T05:43:47.571Z,-0.17
2023-03-03T05:44:47.561Z,-0.21
2023-03-03T05:45:47.534Z,-0.21
2023-03-03T05:46:47.559Z,-0.31
2023-03-03T05:47:47.456Z,-0.37
2023-03-03T05:48:47.437Z,-0.38
2023-03-03T05:49:47.480Z,-0.39
2023-03-03T05:50:47.428Z,-0.41
2023-03-03T05:51:47.414Z,-0.47
2023-03-03T05:52:47.421Z,-0.49
2023-03-03T05:53:47.366Z,-0.45
2023-03-03T05:54:47.354Z,-0.52
2023-03-03T05:55:47.345Z,-0.49
2023-03-03T05:56:47.377Z,-0.50
2023-03-03T05:57:47.338Z,-0.53
2023-03-03T05:58:47.326Z,-0.55
2023-03-03T05:59:47.387Z,-0.59
2023-03-03T06:00:47.287Z,-0.60
2023-03-03T06:01:47.341Z,-0.60
2023-03-03T06:02:47.303Z,-0.63
2023-03-03T06:03:47.255Z,-0.63
2023-03-03T06:04:47.238Z,-0.63
2023-03-03T06:05:47.226Z,-0.62
2023-03-03T06:06:47.273Z,-0.63
2023-03-03T06:07:47.276Z,-0.60
2023-03-03T06:08:47.989Z,-0.59
2023-03-03T06:09:47.166Z,-0.60
2023-03-03T06:10:47.160Z,-0.56
2023-03-03T06:11:47.186Z,-0.58
2023-03-03T06:12:47.165Z,-0.58
2023-03-03T06:13:47.117Z,-0.60
2023-03-03T06:14:47.119Z,-0.59
2023-03-03T06:15:47.116Z,-0.60
2023-03-03T06:16:47.183Z,-0.65
2023-03-03T06:17:47.065Z,-0.67
2023-03-03T06:18:47.066Z,-0.70
2023-03-03T06:19:47.044Z,-0.71
2023-03-03T06:20:47.044Z,-0.67
2023-03-03T06:21:47.054Z,-0.70
2023-03-03T06:22:47.025Z,-0.73
2023-03-03T06:23:46.994Z,-0.71
2023-03-03T06:24:46.985Z,-0.74
2023-03-03T06:25:46.974Z,-0.68
2023-03-03T06:26:47.415Z,-0.68
2023-03-03T06:27:47.004Z,-0.67
2023-03-03T06:28:46.935Z,-0.65
2023-03-03T06:29:47.307Z,-0.67
2023-03-03T06:30:46.925Z,-0.67
2023-03-03T06:31:46.983Z,-0.65
2023-03-03T06:32:46.965Z,-0.63
2023-03-03T06:33:46.860Z,-0.63
2023-03-03T06:34:46.859Z,-0.60
2023-03-03T06:35:46.853Z,-0.58
2023-03-03T06:36:46.882Z,-0.59
2023-03-03T06:37:46.814Z,-0.56
2023-03-03T06:38:46.816Z,-0.60
2023-03-03T06:39:46.788Z,-0.58
2023-03-03T06:40:46.789Z,-0.56
2023-03-03T06:41:46.804Z,-0.56
2023-03-03T06:42:47.417Z,-0.52
2023-03-03T06:43:46.740Z,-0.47
2023-03-03T06:44:46.716Z,-0.47
2023-03-03T06:45:46.813Z,-0.45
2023-03-03T06:46:46.860Z,-0.45
2023-03-03T06:47:46.675Z,-0.44
2023-03-03T06:48:46.676Z,-0.39
2023-03-03T06:49:46.656Z,-0.41
2023-03-03T06:50:46.649Z,-0.45
2023-03-03T06:51:46.676Z,-0.45
2023-03-03T06:52:46.647Z,-0.49
2023-03-03T06:53:46.607Z,-0.50
2023-03-03T06:54:46.610Z,-0.52
2023-03-03T06:55:46.575Z,-0.49
2023-03-03T06:56:46.616Z,-0.52
2023-03-03T06:57:47.015Z,-0.49
2023-03-03T06:58:46.545Z,-0.49
2023-03-03T06:59:46.532Z,-0.44
2023-03-03T07:00:46.556Z,-0.39
2023-03-03T07:01:46.624Z,-0.44
2023-03-03T07:02:46.511Z,-0.39
2023-03-03T07:03:46.496Z,-0.41
2023-03-03T07:04:46.482Z,-0.44
2023-03-03T07:05:46.458Z,-0.41
2023-03-03T07:06:46.452Z,-0.39
2023-03-03T07:07:46.463Z,-0.41
2023-03-03T07:08:46.447Z,-0.41
2023-03-03T07:09:46.410Z,-0.41
2023-03-03T07:10:46.401Z,-0.42
2023-03-03T07:11:46.747Z,-0.41
2023-03-03T07:12:46.482Z,-0.41
2023-03-03T07:13:46.363Z,-0.38
2023-03-03T07:14:46.512Z,-0.35
2023-03-03T07:15:46.343Z,-0.34
2023-03-03T07:16:46.459Z,-0.30
2023-03-03T07:17:46.375Z,-0.30
2023-03-03T07:18:46.436Z,-0.27
2023-03-03T07:19:46.321Z,-0.27
2023-03-03T07:20:46.292Z,-0.31
2023-03-03T07:21:46.278Z,-0.24
2023-03-03T07:22:46.341Z,-0.31
2023-03-03T07:23:46.240Z,-0.30
2023-03-03T07:24:47.435Z,-0.26
2023-03-03T07:25:46.296Z,-0.24
2023-03-03T07:26:46.241Z,-0.24
2023-03-03T07:27:46.223Z,-0.24
2023-03-03T07:28:46.183Z,-0.21
2023-03-03T07:29:46.164Z,-0.26
2023-03-03T07:30:46.235Z,-0.24
2023-03-03T07:31:46.167Z,-0.23
2023-03-03T07:32:46.216Z,-0.20
2023-03-03T07:33:46.131Z,-0.19
2023-03-03T07:34:46.113Z,-0.19
2023-03-03T07:35:46.140Z,-0.17
2023-03-03T07:36:46.107Z,-0.20
2023-03-03T07:37:46.126Z,-0.16
2023-03-03T07:38:46.062Z,-0.17
2023-03-03T07:39:46.036Z,-0.24
2023-03-03T07:40:46.031Z,-0.21
2023-03-03T07:41:46.033Z,-0.26
2023-03-03T07:42:46.069Z,-0.23
2023-03-03T07:43:46.017Z,-0.20
2023-03-03T07:44:46.046Z,-0.23
2023-03-03T07:45:46.068Z,-0.16
2023-03-03T07:46:45.960Z,-0.14
2023-03-03T07:47:45.933Z,-0.14
2023-03-03T07:48:45.973Z,-0.14
2023-03-03T07:49:45.916Z,-0.16
2023-03-03T07:50:46.004Z,-0.16
2023-03-03T07:51:45.914Z,-0.12
2023-03-03T07:52:45.891Z,-0.09
2023-03-03T07:53:45.895Z,-0.08
2023-03-03T07:54:45.856Z,-0.09
2023-03-03T07:55:45.841Z,-0.05
2023-03-03T07:56:45.927Z,-0.06
2023-03-03T07:57:45.874Z,-0.03
2023-03-03T07:58:45.858Z,-0.01
2023-03-03T07:59:45.789Z,0.05
2023-03-03T08:00:45.852Z,0.10
2023-03-03T08:01:45.769Z,0.13
2023-03-03T08:02:45.821Z,0.17
2023-03-03T08:03:45.730Z,0.17
2023-03-03T08:04:45.840Z,0.16
2023-03-03T08:05:45.746Z,0.13
2023-03-03T08:06:45.707Z,0.22
2023-03-03T08:07:45.713Z,0.20
2023-03-03T08:08:45.684Z,0.25
2023-03-03T08:09:45.652Z,0.30
2023-03-03T08:10:45.674Z,0.28
2023-03-03T08:11:45.621Z,0.34
2023-03-03T08:12:45.668Z,0.37
2023-03-03T08:13:45.615Z,0.51
2023-03-03T08:14:45.591Z,0.51
2023-03-03T08:15:45.588Z,0.56
2023-03-03T08:16:45.806Z,0.64
2023-03-03T08:17:45.577Z,0.67
2023-03-03T08:18:45.608Z,0.68
2023-03-03T08:19:45.560Z,0.72
2023-03-03T08:20:45.551Z,0.74
2023-03-03T08:21:45.484Z,0.78
2023-03-03T08:22:45.515Z,0.81
2023-03-03T08:23:45.496Z,0.81
2023-03-03T08:24:45.449Z,0.86
2023-03-03T08:25:45.441Z,0.89
2023-03-03T08:26:45.461Z,0.92
2023-03-03T08:27:45.460Z,0.90
2023-03-03T08:28:45.530Z,0.93
2023-03-03T08:29:47.032Z,0.92
2023-03-03T08:30:45.444Z,0.98
2023-03-03T08:31:45.448Z,0.96
2023-03-03T08:32:45.677Z,0.93
2023-03-03T08:33:45.325Z,0.93
2023-03-03T08:34:45.341Z,0.95
2023-03-03T08:35:45.447Z,0.92
2023-03-03T08:36:45.388Z,0.92
2023-03-03T08:37:45.326Z,0.89
2023-03-03T08:38:45.259Z,0.86
2023-03-03T08:39:45.317Z,0.80
2023-03-03T08:40:45.449Z,0.75
2023-03-03T08:41:45.385Z,0.77
2023-03-03T08:42:45.328Z,0.77
2023-03-03T08:43:45.427Z,0.75
2023-03-03T08:44:45.186Z,0.75
2023-03-03T08:45:45.188Z,0.75
2023-03-03T08:46:45.210Z,0.77
2023-03-03T08:47:45.142Z,0.78
2023-03-03T08:48:45.359Z,0.71
2023-03-03T08:49:45.116Z,0.71
2023-03-03T08:50:45.124Z,0.62
2023-03-03T08:51:45.761Z,0.53
2023-03-03T08:52:45.129Z,0.52
2023-03-03T08:53:45.096Z,0.52
2023-03-03T08:54:45.079Z,0.49
2023-03-03T08:55:45.104Z,0.49
2023-03-03T08:56:45.167Z,0.51
2023-03-03T08:57:45.689Z,0.52
2023-03-03T08:58:56.186Z,0.59
2023-03-03T08:59:46.128Z,0.63
2023-03-03T09:00:48.874Z,0.68
2023-03-03T09:01:45.091Z,0.72
2023-03-03T09:02:45.556Z,0.75
2023-03-03T09:03:44.988Z,0.77
2023-03-03T09:04:45.846Z,0.78
2023-03-03T09:05:44.918Z,0.84
2023-03-03T09:06:44.914Z,0.84
2023-03-03T09:07:47.615Z,0.93
2023-03-03T09:08:44.941Z,0.95
2023-03-03T09:09:45.179Z,0.93
2023-03-03T09:10:44.957Z,0.98
2023-03-03T09:11:44.900Z,0.99
2023-03-03T09:12:45.033Z,1.00
2023-03-03T09:13:44.972Z,1.10
2023-03-03T09:14:44.951Z,1.14
2023-03-03T09:15:44.792Z,1.20
2023-03-03T09:16:44.782Z,1.16
2023-03-03T09:17:44.847Z,1.21
2023-03-03T09:18:44.789Z,1.28
2023-03-03T09:19:45.019Z,1.31
2023-03-03T09:20:44.892Z,1.35
2023-03-03T09:21:44.729Z,1.35
2023-03-03T09:22:44.795Z,1.31
2023-03-03T09:23:44.682Z,1.31
2023-03-03T09:24:44.699Z,1.28
2023-03-03T09:25:44.660Z,1.26
2023-03-03T09:26:44.715Z,1.24
2023-03-03T09:27:44.689Z,1.21
2023-03-03T09:28:44.651Z,1.18
2023-03-03T09:29:44.607Z,1.20
2023-03-03T09:30:44.589Z,1.28
2023-03-03T09:31:44.656Z,1.35
2023-03-03T09:32:45.257Z,1.34
2023-03-03T09:33:44.622Z,1.31
2023-03-03T09:34:44.560Z,1.20
2023-03-03T09:35:44.551Z,1.17
2023-03-03T09:36:44.928Z,1.20
2023-03-03T09:37:44.580Z,1.26
2023-03-03T09:38:44.508Z,1.35
2023-03-03T09:39:44.476Z,1.43
2023-03-03T09:40:44.463Z,1.49
2023-03-03T09:41:44.641Z,1.56
2023-03-03T09:42:44.447Z,1.60
2023-03-03T09:43:44.448Z,1.61
2023-03-03T09:44:44.414Z,1.61
2023-03-03T09:45:44.395Z,1.60
2023-03-03T09:46:44.417Z,1.63
2023-03-03T09:47:44.374Z,1.60
2023-03-03T09:48:44.406Z,1.49
2023-03-03T09:49:44.343Z,1.43
2023-03-03T09:50:44.497Z,1.44
2023-03-03T09:51:44.348Z,1.47
2023-03-03T09:52:45.255Z,1.53
2023-03-03T09:53:44.370Z,1.60
2023-03-03T09:54:44.285Z,1.56
2023-03-03T09:55:44.275Z,1.64
2023-03-03T09:56:44.245Z,1.64
2023-03-03T09:57:44.260Z,1.61
2023-03-03T09:58:44.274Z,1.64
2023-03-03T09:59:44.226Z,1.67
2023-03-03T10:00:44.234Z,1.71
2023-03-03T10:01:44.182Z,1.81
2023-03-03T10:02:44.185Z,1.85
2023-03-03T10:03:44.278Z,1.90
2023-03-03T10:04:44.178Z,1.98
2023-03-03T10:05:44.164Z,2.00
2023-03-03T10:06:44.123Z,2.04
2023-03-03T10:07:44.119Z,2.05
2023-03-03T10:08:44.138Z,2.09
2023-03-03T10:09:44.093Z,2.15
2023-03-03T10:10:44.183Z,2.20
2023-03-03T10:11:44.130Z,2.23
2023-03-03T10:12:44.172Z,2.30
2023-03-03T10:13:44.173Z,2.36
2023-03-03T10:14:44.269Z,2.45
2023-03-03T10:15:45.501Z,2.47
2023-03-03T10:16:44.099Z,2.41
2023-03-03T10:17:43.991Z,2.38
2023-03-03T10:18:43.991Z,2.37
2023-03-03T10:19:43.960Z,2.36
2023-03-03T10:20:50.150Z,2.43
2023-03-03T10:21:44.936Z,2.45
2023-03-03T10:22:44.110Z,2.50
2023-03-03T10:23:44.091Z,2.47
2023-03-03T10:24:43.894Z,2.47
2023-03-03T10:25:43.980Z,2.43
2023-03-03T10:26:47.383Z,2.50
2023-03-03T10:27:44.910Z,2.59
2023-03-03T10:28:44.179Z,2.61
2023-03-03T10:29:44.006Z,2.61
2023-03-03T10:30:54.739Z,2.61
2023-03-03T10:31:46.329Z,2.61
2023-03-03T10:32:43.943Z,2.63
2023-03-03T10:33:43.936Z,2.58
2023-03-03T10:34:43.769Z,2.53
2023-03-03T10:35:51.114Z,2.55
2023-03-03T10:36:45.759Z,2.51
2023-03-03T10:37:47.851Z,2.44
2023-03-03T10:38:43.710Z,2.37
2023-03-03T10:39:43.857Z,2.44
2023-03-03T10:40:43.678Z,2.45
2023-03-03T10:41:44.007Z,2.50
2023-03-03T10:42:45.019Z,2.56
2023-03-03T10:43:43.808Z,2.59
2023-03-03T10:44:43.640Z,2.56
2023-03-03T10:45:43.671Z,2.53
2023-03-03T10:46:43.629Z,2.56
2023-03-03T10:47:43.603Z,2.53
2023-03-03T10:48:43.639Z,2.56
2023-03-03T10:49:43.570Z,2.56
2023-03-03T10:50:43.573Z,2.55
2023-03-03T10:51:43.704Z,2.53
2023-03-03T10:52:43.537Z,2.47
2023-03-03T10:53:43.549Z,2.51
2023-03-03T10:54:43.515Z,2.48
2023-03-03T10:55:43.504Z,2.51
2023-03-03T10:56:52.856Z,2.56
2023-03-03T10:57:44.552Z,2.65
2023-03-03T10:58:43.549Z,2.77
2023-03-03T10:59:43.464Z,2.80
2023-03-03T11:00:43.661Z,2.83
2023-03-03T11:01:43.509Z,2.94
2023-03-03T11:02:43.427Z,3.02
2023-03-03T11:03:43.461Z,3.04
2023-03-03T11:04:43.472Z,3.04
2023-03-03T11:05:43.397Z,3.02
2023-03-03T11:06:43.347Z,2.98
2023-03-03T11:07:43.355Z,3.02
2023-03-03T11:08:43.365Z,3.02
2023-03-03T11:09:43.306Z,3.07
2023-03-03T11:10:43.312Z,3.08
2023-03-03T11:11:47.407Z,2.99
2023-03-03T11:12:44.804Z,3.01
2023-03-03T11:13:43.306Z,3.02
2023-03-03T11:14:43.246Z,3.04
2023-03-03T11:15:43.234Z,3.02
2023-03-03T11:16:43.245Z,3.07
2023-03-03T11:17:43.215Z,3.17
2023-03-03T11:18:43.223Z,3.31
2023-03-03T11:19:48.316Z,3.34
2023-03-03T11:20:43.265Z,3.37
2023-03-03T11:21:43.239Z,3.41
2023-03-03T11:22:43.136Z,3.39
2023-03-03T11:23:43.165Z,3.39
2023-03-03T11:24:45.563Z,3.44
2023-03-03T11:25:43.410Z,3.39
2023-03-03T11:26:43.401Z,3.35
2023-03-03T11:27:43.084Z,3.23
2023-03-03T11:28:43.214Z,3.19
2023-03-03T11:29:43.083Z,3.17
2023-03-03T11:30:43.102Z,3.20
2023-03-03T11:31:43.035Z,3.30
2023-03-03T11:32:43.012Z,3.37
2023-03-03T11:33:43.783Z,3.41
2023-03-03T11:34:43.061Z,3.31
2023-03-03T11:35:43.148Z,3.35
2023-03-03T11:36:43.113Z,3.39
2023-03-03T11:37:43.003Z,3.39
2023-03-03T11:38:42.930Z,3.42
2023-03-03T11:39:42.946Z,3.44
2023-03-03T11:40:43.009Z,3.52
2023-03-03T11:41:42.970Z,3.59
2023-03-03T11:42:42.885Z,3.75
2023-03-03T11:43:42.872Z,3.82
2023-03-03T11:44:42.904Z,3.82
2023-03-03T11:45:42.863Z,3.81
2023-03-03T11:46:42.902Z,3.82
2023-03-03T11:47:42.833Z,3.75
2023-03-03T11:48:42.825Z,3.74
2023-03-03T11:49:42.820Z,3.67
2023-03-03T11:50:42.775Z,3.53
2023-03-03T11:51:42.952Z,3.45
2023-03-03T11:52:42.905Z,3.42
2023-03-03T11:53:42.782Z,3.39
2023-03-03T11:54:42.951Z,3.34
2023-03-03T11:55:42.727Z,3.31
2023-03-03T11:56:42.791Z,3.35
2023-03-03T11:57:42.713Z,3.28
2023-03-03T11:58:42.701Z,3.28
2023-03-03T11:59:42.729Z,3.33
2023-03-03T12:00:42.794Z,3.39
2023-03-03T12:01:42.637Z,3.46
2023-03-03T12:02:42.655Z,3.49
2023-03-03T12:03:42.645Z,3.45
2023-03-03T12:04:42.620Z,3.46
2023-03-03T12:05:42.670Z,3.35
2023-03-03T12:06:42.578Z,3.35
2023-03-03T12:07:42.585Z,3.28
2023-03-03T12:08:42.544Z,3.35
2023-03-03T12:09:43.246Z,3.44
2023-03-03T12:10:42.529Z,3.57
2023-03-03T12:11:42.693Z,3.78
2023-03-03T12:12:42.487Z,3.86
2023-03-03T12:13:42.474Z,3.95
2023-03-03T12:14:42.486Z,4.08
2023-03-03T12:15:42.517Z,4.28
2023-03-03T12:16:42.429Z,4.46
2023-03-03T12:17:42.567Z,4.51
2023-03-03T12:18:42.421Z,4.44
2023-03-03T12:19:42.612Z,4.39
2023-03-03T12:20:42.380Z,4.31
2023-03-03T12:21:42.472Z,4.28
2023-03-03T12:22:42.494Z,4.29
2023-03-03T12:23:42.441Z,4.32
2023-03-03T12:24:42.621Z,4.46
2023-03-03T12:25:42.509Z,4.56
2023-03-03T12:26:43.393Z,4.68
2023-03-03T12:27:42.400Z,4.79
2023-03-03T12:28:42.443Z,4.87
2023-03-03T12:29:42.540Z,4.91
2023-03-03T12:30:42.474Z,4.83
2023-03-03T12:31:42.508Z,4.72
2023-03-03T12:32:42.337Z,4.61
2023-03-03T12:33:42.436Z,4.56
2023-03-03T12:34:42.890Z,4.50
2023-03-03T12:35:42.565Z,4.47
2023-03-03T12:36:42.418Z,4.51
2023-03-03T12:37:42.296Z,4.47
2023-03-03T12:38:42.510Z,4.47
2023-03-03T12:39:42.551Z,4.39
2023-03-03T12:40:42.281Z,4.34
2023-03-03T12:41:42.222Z,4.31
2023-03-03T12:42:42.208Z,4.21
2023-03-03T12:43:42.218Z,4.17
2023-03-03T12:44:42.254Z,4.07
2023-03-03T12:45:42.309Z,4.10
2023-03-03T12:46:42.234Z,4.10
2023-03-03T12:47:42.265Z,4.16
2023-03-03T12:48:42.153Z,4.18
2023-03-03T12:49:45.243Z,4.26
2023-03-03T12:50:43.114Z,4.35
2023-03-03T12:51:42.108Z,4.43
2023-03-03T12:52:42.081Z,4.56
2023-03-03T12:53:42.075Z,4.65
2023-03-03T12:54:42.103Z,4.71
2023-03-03T12:55:42.032Z,4.84
2023-03-03T12:56:42.156Z,4.97
2023-03-03T12:57:44.569Z,4.99
2023-03-03T12:58:41.993Z,5.01
2023-03-03T12:59:42.013Z,4.90
2023-03-03T13:00:42.073Z,4.77
2023-03-03T13:01:42.111Z,4.69
2023-03-03T13:02:42.060Z,4.65
2023-03-03T13:03:55.016Z,4.67
2023-03-03T13:04:42.943Z,4.69
2023-03-03T13:05:44.008Z,4.72
2023-03-03T13:06:42.033Z,4.79
2023-03-03T13:07:42.160Z,4.87
2023-03-03T13:08:42.718Z,4.87
2023-03-03T13:09:41.880Z,4.83